PWSweather.com
Personal Weather Stations
Station Observations
BOOMEPH
Weather On The Hill Or Not, Ephrata, PA 17522

Weather On The Hill Or NotEphrata, PA 17522

Lat: 40.17243, Lon: -76.180815

Elevation: 597

Station Type: Ambient WS 1080

Latest ConditionsUpdated 5:33:00 AM EDT Thursday, Apr 17, 2014
Currently Today's Max Today's Min Today's Average
Temperature 34.7°F1.5°C 36.9°F2.7°C 34.5°F1.4°C 35.4°F1.9°C
Dew Point 14.5°F-9.7°C 17.4°F-8.1°C 14.4°F-9.8°C 15.9°F-8.9°C
Winds 3.1 mph SE5.0 kmh SE 7.6 mph E12.2 kmh E - 3.6 mph 5.8 kmh
Wind Gusts 12.1 mph19.5 kmh 12.1 mph19.5 kmh - -
Humidity 43% 48% 43% 45%
Pressure 30.91 in1046.7 mb 30.92 in1047.1 mb 30.89 in1046.1 mb -
Hour Temp Dew Point Humidity Winds Wind Gusts Pressure Precip Precip Rate Daily Precip Total
05:33 AM 34.7°F1.5°C 14.5°F-9.7°C 43% 3.1 mph SE5.0 kmh SE 12.1 mph19.5 kmh 30.91 in1046.7 mb 0.00 in0.0 mm 0.00 in/hr0.0 mm/hr 0.00 in0.0 mm
05:32 AM 34.7°F1.5°C 14.5°F-9.7°C 43% 3.1 mph SE5.0 kmh SE 12.1 mph19.5 kmh 30.92 in1047.1 mb 0.00 in0.0 mm 0.00 in/hr0.0 mm/hr 0.00 in0.0 mm
05:31 AM 34.7°F1.5°C 14.5°F-9.7°C 43% 3.1 mph SE5.0 kmh SE 12.1 mph19.5 kmh 30.92 in1047.1 mb 0.00 in0.0 mm 0.00 in/hr0.0 mm/hr 0.00 in0.0 mm
05:30 AM 34.7°F1.5°C 14.5°F-9.7°C 43% 3.8 mph SE6.1 kmh SE 12.1 mph19.5 kmh 30.92 in1047.1 mb 0.00 in0.0 mm 0.00 in/hr0.0 mm/hr 0.00 in0.0 mm
05:29 AM 34.9°F1.6°C 14.7°F-9.6°C 43% 3.1 mph SE5.0 kmh SE 12.1 mph19.5 kmh 30.92 in1047.1 mb 0.00 in0.0 mm 0.00 in/hr0.0 mm/hr 0.00 in0.0 mm
05:28 AM 34.9°F1.6°C 14.7°F-9.6°C 43% 3.8 mph SE6.1 kmh SE 12.1 mph19.5 kmh 30.91 in1046.7 mb 0.00 in0.0 mm 0.00 in/hr0.0 mm/hr 0.00 in0.0 mm
05:27 AM 35.1°F1.7°C 14.9°F-9.5°C 43% 2.2 mph SE3.5 kmh SE 12.1 mph19.5 kmh 30.91 in1046.7 mb 0.00 in0.0 mm 0.00 in/hr0.0 mm/hr 0.00 in0.0 mm
05:26 AM 35.2°F1.8°C 15.0°F-9.4°C 43% 3.8 mph SE6.1 kmh SE 12.1 mph19.5 kmh 30.91 in1046.7 mb 0.00 in0.0 mm 0.00 in/hr0.0 mm/hr 0.00 in0.0 mm
05:23 AM 34.5°F1.4°C 14.4°F-9.8°C 43% 3.8 mph SE6.1 kmh SE 7.6 mph12.2 kmh 30.92 in1047.1 mb 0.00 in0.0 mm 0.00 in/hr0.0 mm/hr 0.00 in0.0 mm
05:22 AM 34.7°F1.5°C 14.5°F-9.7°C 43% 1.6 mph SE2.6 kmh SE 7.6 mph12.2 kmh 30.91 in1046.7 mb 0.00 in0.0 mm 0.00 in/hr0.0 mm/hr 0.00 in0.0 mm
05:21 AM 34.7°F1.5°C 14.5°F-9.7°C 43% 3.8 mph SE6.1 kmh SE 7.6 mph12.2 kmh 30.91 in1046.7 mb 0.00 in0.0 mm 0.00 in/hr0.0 mm/hr 0.00 in0.0 mm
05:20 AM 34.7°F1.5°C 14.5°F-9.7°C 43% 3.8 mph SE6.1 kmh SE 7.6 mph12.2 kmh 30.91 in1046.7 mb 0.00 in0.0 mm 0.00 in/hr0.0 mm/hr 0.00 in0.0 mm
05:19 AM 34.9°F1.6°C 14.7°F-9.6°C 43% 1.6 mph SE2.6 kmh SE 7.6 mph12.2 kmh 30.91 in1046.7 mb 0.00 in0.0 mm 0.00 in/hr0.0 mm/hr 0.00 in0.0 mm
05:18 AM 34.9°F1.6°C 14.7°F-9.6°C 43% 5.4 mph SE8.7 kmh SE 11.4 mph18.3 kmh 30.91 in1046.7 mb 0.00 in0.0 mm 0.00 in/hr0.0 mm/hr 0.00 in0.0 mm
05:17 AM 34.9°F1.6°C 14.7°F-9.6°C 43% 3.1 mph SE5.0 kmh SE 11.4 mph18.3 kmh 30.91 in1046.7 mb 0.00 in0.0 mm 0.00 in/hr0.0 mm/hr 0.00 in0.0 mm
05:16 AM 34.9°F1.6°C 14.7°F-9.6°C 43% 4.5 mph SE7.2 kmh SE 11.4 mph18.3 kmh 30.91 in1046.7 mb 0.00 in0.0 mm 0.00 in/hr0.0 mm/hr 0.00 in0.0 mm
05:15 AM 34.9°F1.6°C 14.7°F-9.6°C 43% 3.1 mph SE5.0 kmh SE 11.4 mph18.3 kmh 30.91 in1046.7 mb 0.00 in0.0 mm 0.00 in/hr0.0 mm/hr 0.00 in0.0 mm
05:14 AM 34.9°F1.6°C 14.7°F-9.6°C 43% 4.5 mph SE7.2 kmh SE 11.4 mph18.3 kmh 30.91 in1046.7 mb 0.00 in0.0 mm 0.00 in/hr0.0 mm/hr 0.00 in0.0 mm
05:13 AM 34.9°F1.6°C 14.7°F-9.6°C 43% 2.2 mph SE3.5 kmh SE 11.4 mph18.3 kmh 30.91 in1046.7 mb 0.00 in0.0 mm 0.00 in/hr0.0 mm/hr 0.00 in0.0 mm
05:12 AM 34.9°F1.6°C 14.7°F-9.6°C 43% 3.8 mph SE6.1 kmh SE 11.4 mph18.3 kmh 30.91 in1046.7 mb 0.00 in0.0 mm 0.00 in/hr0.0 mm/hr 0.00 in0.0 mm
05:11 AM 34.9°F1.6°C 14.7°F-9.6°C 43% 2.2 mph SE3.5 kmh SE 11.4 mph18.3 kmh 30.91 in1046.7 mb 0.00 in0.0 mm 0.00 in/hr0.0 mm/hr 0.00 in0.0 mm
05:10 AM 35.1°F1.7°C 14.9°F-9.5°C 43% 3.8 mph SE6.1 kmh SE 11.4 mph18.3 kmh 30.91 in1046.7 mb 0.00 in0.0 mm 0.00 in/hr0.0 mm/hr 0.00 in0.0 mm
05:09 AM 35.2°F1.8°C 15.0°F-9.4°C 43% 3.8 mph SE6.1 kmh SE 11.4 mph18.3 kmh 30.91 in1046.7 mb 0.00 in0.0 mm 0.00 in/hr0.0 mm/hr 0.00 in0.0 mm
05:08 AM 35.1°F1.7°C 14.9°F-9.5°C 43% 7.6 mph SE12.2 kmh SE 11.4 mph18.3 kmh 30.91 in1046.7 mb 0.00 in0.0 mm 0.00 in/hr0.0 mm/hr 0.00 in0.0 mm
05:07 AM 34.9°F1.6°C 14.7°F-9.6°C 43% 3.8 mph SE6.1 kmh SE 8.3 mph13.4 kmh 30.91 in1046.7 mb 0.00 in0.0 mm 0.00 in/hr0.0 mm/hr 0.00 in0.0 mm
05:06 AM 34.9°F1.6°C 14.7°F-9.6°C 43% 3.8 mph SE6.1 kmh SE 8.3 mph13.4 kmh 30.91 in1046.7 mb 0.00 in0.0 mm 0.00 in/hr0.0 mm/hr 0.00 in0.0 mm
05:05 AM 34.9°F1.6°C 14.7°F-9.6°C 43% 3.1 mph SE5.0 kmh SE 9.2 mph14.8 kmh 30.91 in1046.7 mb 0.00 in0.0 mm 0.00 in/hr0.0 mm/hr 0.00 in0.0 mm
05:04 AM 34.9°F1.6°C 14.7°F-9.6°C 43% 3.8 mph SE6.1 kmh SE 9.2 mph14.8 kmh 30.91 in1046.7 mb 0.00 in0.0 mm 0.00 in/hr0.0 mm/hr 0.00 in0.0 mm
05:03 AM 35.1°F1.7°C 14.9°F-9.5°C 43% 4.5 mph SE7.2 kmh SE 9.2 mph14.8 kmh 30.91 in1046.7 mb 0.00 in0.0 mm 0.00 in/hr0.0 mm/hr 0.00 in0.0 mm
05:02 AM 35.1°F1.7°C 14.9°F-9.5°C 43% 1.6 mph SE2.6 kmh SE 9.2 mph14.8 kmh 30.91 in1046.7 mb 0.00 in0.0 mm 0.00 in/hr0.0 mm/hr 0.00 in0.0 mm
05:01 AM 35.2°F1.8°C 15.0°F-9.4°C 43% 3.1 mph SE5.0 kmh SE 9.2 mph14.8 kmh 30.91 in1046.7 mb 0.00 in0.0 mm 0.00 in/hr0.0 mm/hr 0.00 in0.0 mm
05:00 AM 35.2°F1.8°C 15.0°F-9.4°C 43% 1.6 mph SE2.6 kmh SE 9.2 mph14.8 kmh 30.91 in1046.7 mb 0.00 in0.0 mm 0.00 in/hr0.0 mm/hr 0.00 in0.0 mm
04:59 AM 35.1°F1.7°C 14.9°F-9.5°C 43% 4.5 mph SE7.2 kmh SE 9.2 mph14.8 kmh 30.91 in1046.7 mb 0.00 in0.0 mm 0.00 in/hr0.0 mm/hr 0.00 in0.0 mm
04:58 AM 35.1°F1.7°C 14.9°F-9.5°C 43% 3.1 mph ESE5.0 kmh ESE 9.2 mph14.8 kmh 30.91 in1046.7 mb 0.00 in0.0 mm 0.00 in/hr0.0 mm/hr 0.00 in0.0 mm
04:57 AM 35.1°F1.7°C 14.9°F-9.5°C 43% 4.5 mph ESE7.2 kmh ESE 9.2 mph14.8 kmh 30.91 in1046.7 mb 0.00 in0.0 mm 0.00 in/hr0.0 mm/hr 0.00 in0.0 mm
04:56 AM 35.1°F1.7°C 14.9°F-9.5°C 43% 3.8 mph E6.1 kmh E 9.2 mph14.8 kmh 30.91 in1046.7 mb 0.00 in0.0 mm 0.00 in/hr0.0 mm/hr 0.00 in0.0 mm
04:55 AM 35.1°F1.7°C 14.9°F-9.5°C 43% 4.5 mph E7.2 kmh E 9.2 mph14.8 kmh 30.91 in1046.7 mb 0.00 in0.0 mm 0.00 in/hr0.0 mm/hr 0.00 in0.0 mm
04:54 AM 35.1°F1.7°C 14.9°F-9.5°C 43% 3.8 mph E6.1 kmh E 9.2 mph14.8 kmh 30.91 in1046.7 mb 0.00 in0.0 mm 0.00 in/hr0.0 mm/hr 0.00 in0.0 mm
04:53 AM 35.1°F1.7°C 14.9°F-9.5°C 43% 3.1 mph E5.0 kmh E 9.2 mph14.8 kmh 30.91 in1046.7 mb 0.00 in0.0 mm 0.00 in/hr0.0 mm/hr 0.00 in0.0 mm
04:52 AM 35.1°F1.7°C 14.9°F-9.5°C 43% 4.5 mph E7.2 kmh E 9.2 mph14.8 kmh 30.91 in1046.7 mb 0.00 in0.0 mm 0.00 in/hr0.0 mm/hr 0.00 in0.0 mm
04:51 AM 35.1°F1.7°C 14.9°F-9.5°C 43% 3.1 mph E5.0 kmh E 9.2 mph14.8 kmh 30.91 in1046.7 mb 0.00 in0.0 mm 0.00 in/hr0.0 mm/hr 0.00 in0.0 mm
04:50 AM 35.2°F1.8°C 15.0°F-9.4°C 43% 3.8 mph E6.1 kmh E 9.2 mph14.8 kmh 30.91 in1046.7 mb 0.00 in0.0 mm 0.00 in/hr0.0 mm/hr 0.00 in0.0 mm
04:49 AM 35.1°F1.7°C 14.9°F-9.5°C 43% 4.5 mph E7.2 kmh E 9.2 mph14.8 kmh 30.91 in1046.7 mb 0.00 in0.0 mm 0.00 in/hr0.0 mm/hr 0.00 in0.0 mm
04:48 AM 35.2°F1.8°C 15.0°F-9.4°C 43% 3.1 mph E5.0 kmh E 9.2 mph14.8 kmh 30.91 in1046.7 mb 0.00 in0.0 mm 0.00 in/hr0.0 mm/hr 0.00 in0.0 mm
04:47 AM 35.2°F1.8°C 15.0°F-9.4°C 43% 4.5 mph E7.2 kmh E 9.2 mph14.8 kmh 30.91 in1046.7 mb 0.00 in0.0 mm 0.00 in/hr0.0 mm/hr 0.00 in0.0 mm
04:46 AM 35.4°F1.9°C 15.2°F-9.3°C 43% 3.8 mph E6.1 kmh E 9.2 mph14.8 kmh 30.91 in1046.7 mb 0.00 in0.0 mm 0.00 in/hr0.0 mm/hr 0.00 in0.0 mm
04:45 AM 35.2°F1.8°C 15.0°F-9.4°C 43% 6.0 mph ESE9.7 kmh ESE 9.2 mph14.8 kmh 30.91 in1046.7 mb 0.00 in0.0 mm 0.00 in/hr0.0 mm/hr 0.00 in0.0 mm
04:44 AM 35.2°F1.8°C 15.0°F-9.4°C 43% 3.8 mph SE6.1 kmh SE 7.6 mph12.2 kmh 30.91 in1046.7 mb 0.00 in0.0 mm 0.00 in/hr0.0 mm/hr 0.00 in0.0 mm
04:43 AM 35.2°F1.8°C 15.0°F-9.4°C 43% 0.7 mph SE1.1 kmh SE 7.6 mph12.2 kmh 30.91 in1046.7 mb 0.00 in0.0 mm 0.00 in/hr0.0 mm/hr 0.00 in0.0 mm
04:42 AM 35.4°F1.9°C 15.2°F-9.3°C 43% 1.6 mph ESE2.6 kmh ESE 8.3 mph13.4 kmh 30.91 in1046.7 mb 0.00 in0.0 mm 0.00 in/hr0.0 mm/hr 0.00 in0.0 mm
04:41 AM 35.4°F1.9°C 15.2°F-9.3°C 43% 3.1 mph SE5.0 kmh SE 8.3 mph13.4 kmh 30.91 in1046.7 mb 0.00 in0.0 mm 0.00 in/hr0.0 mm/hr 0.00 in0.0 mm
04:40 AM 35.4°F1.9°C 15.2°F-9.3°C 43% 3.1 mph SE5.0 kmh SE 8.3 mph13.4 kmh 30.91 in1046.7 mb 0.00 in0.0 mm 0.00 in/hr0.0 mm/hr 0.00 in0.0 mm
04:39 AM 35.2°F1.8°C 15.0°F-9.4°C 43% 4.5 mph SE7.2 kmh SE 8.3 mph13.4 kmh 30.91 in1046.7 mb 0.00 in0.0 mm 0.00 in/hr0.0 mm/hr 0.00 in0.0 mm
04:38 AM 35.2°F1.8°C 15.0°F-9.4°C 43% 3.8 mph SE6.1 kmh SE 8.3 mph13.4 kmh 30.91 in1046.7 mb 0.00 in0.0 mm 0.00 in/hr0.0 mm/hr 0.00 in0.0 mm
04:37 AM 35.2°F1.8°C 15.0°F-9.4°C 43% 3.8 mph SE6.1 kmh SE 8.3 mph13.4 kmh 30.91 in1046.7 mb 0.00 in0.0 mm 0.00 in/hr0.0 mm/hr 0.00 in0.0 mm
04:36 AM 35.4°F1.9°C 15.2°F-9.3°C 43% 4.5 mph ESE7.2 kmh ESE 8.3 mph13.4 kmh 30.91 in1046.7 mb 0.00 in0.0 mm 0.00 in/hr0.0 mm/hr 0.00 in0.0 mm
04:35 AM 35.2°F1.8°C 15.0°F-9.4°C 43% 3.8 mph ESE6.1 kmh ESE 8.3 mph13.4 kmh 30.91 in1046.7 mb 0.00 in0.0 mm 0.00 in/hr0.0 mm/hr 0.00 in0.0 mm
04:34 AM 35.2°F1.8°C 15.0°F-9.4°C 43% 2.2 mph E3.5 kmh E 8.3 mph13.4 kmh 30.91 in1046.7 mb 0.00 in0.0 mm 0.00 in/hr0.0 mm/hr 0.00 in0.0 mm
04:33 AM 35.2°F1.8°C 15.0°F-9.4°C 43% 4.5 mph E7.2 kmh E 8.3 mph13.4 kmh 30.91 in1046.7 mb 0.00 in0.0 mm 0.00 in/hr0.0 mm/hr 0.00 in0.0 mm
04:32 AM 35.2°F1.8°C 15.0°F-9.4°C 43% 4.5 mph ESE7.2 kmh ESE 8.3 mph13.4 kmh 30.91 in1046.7 mb 0.00 in0.0 mm 0.00 in/hr0.0 mm/hr 0.00 in0.0 mm
04:31 AM 35.4°F1.9°C 15.2°F-9.3°C 43% 6.0 mph SE9.7 kmh SE 8.3 mph13.4 kmh 30.91 in1046.7 mb 0.00 in0.0 mm 0.00 in/hr0.0 mm/hr 0.00 in0.0 mm
04:30 AM 35.2°F1.8°C 15.0°F-9.4°C 43% 5.4 mph ESE8.7 kmh ESE 8.3 mph13.4 kmh 30.91 in1046.7 mb 0.00 in0.0 mm 0.00 in/hr0.0 mm/hr 0.00 in0.0 mm
04:29 AM 35.4°F1.9°C 15.2°F-9.3°C 43% 3.8 mph ESE6.1 kmh ESE 8.3 mph13.4 kmh 30.91 in1046.7 mb 0.00 in0.0 mm 0.00 in/hr0.0 mm/hr 0.00 in0.0 mm
04:28 AM 35.4°F1.9°C 15.2°F-9.3°C 43% 3.8 mph ESE6.1 kmh ESE 8.3 mph13.4 kmh 30.91 in1046.7 mb 0.00 in0.0 mm 0.00 in/hr0.0 mm/hr 0.00 in0.0 mm
04:27 AM 35.2°F1.8°C 16.1°F-8.8°C 45% 4.5 mph SE7.2 kmh SE 7.6 mph12.2 kmh 30.91 in1046.7 mb 0.00 in0.0 mm 0.00 in/hr0.0 mm/hr 0.00 in0.0 mm
04:26 AM 35.2°F1.8°C 16.1°F-8.8°C 45% 2.2 mph SE3.5 kmh SE 7.6 mph12.2 kmh 30.91 in1046.7 mb 0.00 in0.0 mm 0.00 in/hr0.0 mm/hr 0.00 in0.0 mm
04:25 AM 35.1°F1.7°C 15.9°F-8.9°C 45% 3.8 mph SE6.1 kmh SE 7.6 mph12.2 kmh 30.91 in1046.7 mb 0.00 in0.0 mm 0.00 in/hr0.0 mm/hr 0.00 in0.0 mm
04:24 AM 35.1°F1.7°C 15.9°F-8.9°C 45% 3.1 mph SE5.0 kmh SE 9.2 mph14.8 kmh 30.91 in1046.7 mb 0.00 in0.0 mm 0.00 in/hr0.0 mm/hr 0.00 in0.0 mm
04:23 AM 35.2°F1.8°C 16.1°F-8.8°C 45% 3.1 mph SE5.0 kmh SE 9.2 mph14.8 kmh 30.91 in1046.7 mb 0.00 in0.0 mm 0.00 in/hr0.0 mm/hr 0.00 in0.0 mm
04:22 AM 35.1°F1.7°C 15.9°F-8.9°C 45% 5.4 mph SE8.7 kmh SE 9.2 mph14.8 kmh 30.91 in1046.7 mb 0.00 in0.0 mm 0.00 in/hr0.0 mm/hr 0.00 in0.0 mm
04:21 AM 34.9°F1.6°C 15.7°F-9.1°C 45% 3.1 mph SE5.0 kmh SE 9.2 mph14.8 kmh 30.91 in1046.7 mb 0.00 in0.0 mm 0.00 in/hr0.0 mm/hr 0.00 in0.0 mm
04:20 AM 34.9°F1.6°C 14.7°F-9.6°C 43% 3.1 mph ESE5.0 kmh ESE 9.2 mph14.8 kmh 30.91 in1046.7 mb 0.00 in0.0 mm 0.00 in/hr0.0 mm/hr 0.00 in0.0 mm
04:19 AM 34.9°F1.6°C 14.7°F-9.6°C 43% 2.2 mph ESE3.5 kmh ESE 9.2 mph14.8 kmh 30.91 in1046.7 mb 0.00 in0.0 mm 0.00 in/hr0.0 mm/hr 0.00 in0.0 mm
04:18 AM 35.1°F1.7°C 14.9°F-9.5°C 43% 3.1 mph ESE5.0 kmh ESE 9.2 mph14.8 kmh 30.91 in1046.7 mb 0.00 in0.0 mm 0.00 in/hr0.0 mm/hr 0.00 in0.0 mm
04:17 AM 35.2°F1.8°C 15.0°F-9.4°C 43% 3.8 mph ESE6.1 kmh ESE 9.2 mph14.8 kmh 30.91 in1046.7 mb 0.00 in0.0 mm 0.00 in/hr0.0 mm/hr 0.00 in0.0 mm
04:16 AM 35.4°F1.9°C 15.2°F-9.3°C 43% 3.8 mph ESE6.1 kmh ESE 9.2 mph14.8 kmh 30.91 in1046.7 mb 0.00 in0.0 mm 0.00 in/hr0.0 mm/hr 0.00 in0.0 mm
04:15 AM 35.2°F1.8°C 15.0°F-9.4°C 43% 4.5 mph ESE7.2 kmh ESE 9.2 mph14.8 kmh 30.91 in1046.7 mb 0.00 in0.0 mm 0.00 in/hr0.0 mm/hr 0.00 in0.0 mm
04:14 AM 35.2°F1.8°C 15.0°F-9.4°C 43% 5.4 mph ESE8.7 kmh ESE 8.3 mph13.4 kmh 30.91 in1046.7 mb 0.00 in0.0 mm 0.00 in/hr0.0 mm/hr 0.00 in0.0 mm
04:13 AM 35.4°F1.9°C 15.2°F-9.3°C 43% 2.2 mph ESE3.5 kmh ESE 8.3 mph13.4 kmh 30.91 in1046.7 mb 0.00 in0.0 mm 0.00 in/hr0.0 mm/hr 0.00 in0.0 mm
04:12 AM 35.2°F1.8°C 15.0°F-9.4°C 43% 5.4 mph ESE8.7 kmh ESE 8.3 mph13.4 kmh 30.91 in1046.7 mb 0.00 in0.0 mm 0.00 in/hr0.0 mm/hr 0.00 in0.0 mm
04:11 AM 35.1°F1.7°C 14.9°F-9.5°C 43% 2.2 mph ESE3.5 kmh ESE 8.3 mph13.4 kmh 30.91 in1046.7 mb 0.00 in0.0 mm 0.00 in/hr0.0 mm/hr 0.00 in0.0 mm
04:10 AM 35.1°F1.7°C 14.9°F-9.5°C 43% 3.8 mph ESE6.1 kmh ESE 8.3 mph13.4 kmh 30.91 in1046.7 mb 0.00 in0.0 mm 0.00 in/hr0.0 mm/hr 0.00 in0.0 mm
04:09 AM 35.2°F1.8°C 15.0°F-9.4°C 43% 3.1 mph ESE5.0 kmh ESE 10.7 mph17.2 kmh 30.91 in1046.7 mb 0.00 in0.0 mm 0.00 in/hr0.0 mm/hr 0.00 in0.0 mm
04:08 AM 35.2°F1.8°C 15.0°F-9.4°C 43% 5.4 mph ESE8.7 kmh ESE 10.7 mph17.2 kmh 30.91 in1046.7 mb 0.00 in0.0 mm 0.00 in/hr0.0 mm/hr 0.00 in0.0 mm
04:07 AM 35.2°F1.8°C 16.1°F-8.8°C 45% 6.0 mph ESE9.7 kmh ESE 10.7 mph17.2 kmh 30.91 in1046.7 mb 0.00 in0.0 mm 0.00 in/hr0.0 mm/hr 0.00 in0.0 mm
04:06 AM 35.2°F1.8°C 16.1°F-8.8°C 45% 6.0 mph ESE9.7 kmh ESE 10.7 mph17.2 kmh 30.91 in1046.7 mb 0.00 in0.0 mm 0.00 in/hr0.0 mm/hr 0.00 in0.0 mm
04:05 AM 35.2°F1.8°C 16.1°F-8.8°C 45% 6.0 mph ESE9.7 kmh ESE 10.7 mph17.2 kmh 30.91 in1046.7 mb 0.00 in0.0 mm 0.00 in/hr0.0 mm/hr 0.00 in0.0 mm
04:04 AM 35.2°F1.8°C 16.1°F-8.8°C 45% 6.0 mph ESE9.7 kmh ESE 10.7 mph17.2 kmh 30.91 in1046.7 mb 0.00 in0.0 mm 0.00 in/hr0.0 mm/hr 0.00 in0.0 mm
04:03 AM 35.2°F1.8°C 16.1°F-8.8°C 45% 6.0 mph ESE9.7 kmh ESE 10.7 mph17.2 kmh 30.91 in1046.7 mb 0.00 in0.0 mm 0.00 in/hr0.0 mm/hr 0.00 in0.0 mm
04:02 AM 35.2°F1.8°C 16.1°F-8.8°C 45% 6.0 mph ESE9.7 kmh ESE 10.7 mph17.2 kmh 30.91 in1046.7 mb 0.00 in0.0 mm 0.00 in/hr0.0 mm/hr 0.00 in0.0 mm
04:01 AM 35.2°F1.8°C 16.1°F-8.8°C 45% 6.0 mph E9.7 kmh E 10.7 mph17.2 kmh 30.91 in1046.7 mb 0.00 in0.0 mm 0.00 in/hr0.0 mm/hr 0.00 in0.0 mm
04:00 AM 35.2°F1.8°C 16.1°F-8.8°C 45% 6.0 mph E9.7 kmh E 10.7 mph17.2 kmh 30.91 in1046.7 mb 0.00 in0.0 mm 0.00 in/hr0.0 mm/hr 0.00 in0.0 mm
03:59 AM 34.7°F1.5°C 15.6°F-9.1°C 45% 2.2 mph E3.5 kmh E 8.3 mph13.4 kmh 30.91 in1046.7 mb 0.00 in0.0 mm 0.00 in/hr0.0 mm/hr 0.00 in0.0 mm
03:58 AM 34.7°F1.5°C 15.6°F-9.1°C 45% 3.8 mph E6.1 kmh E 8.3 mph13.4 kmh 30.91 in1046.7 mb 0.00 in0.0 mm 0.00 in/hr0.0 mm/hr 0.00 in0.0 mm
03:57 AM 34.7°F1.5°C 15.6°F-9.1°C 45% 3.8 mph E6.1 kmh E 8.3 mph13.4 kmh 30.91 in1046.7 mb 0.00 in0.0 mm 0.00 in/hr0.0 mm/hr 0.00 in0.0 mm
03:56 AM 34.9°F1.6°C 15.7°F-9.1°C 45% 3.1 mph E5.0 kmh E 8.3 mph13.4 kmh 30.91 in1046.7 mb 0.00 in0.0 mm 0.00 in/hr0.0 mm/hr 0.00 in0.0 mm
03:55 AM 34.9°F1.6°C 15.7°F-9.1°C 45% 4.5 mph E7.2 kmh E 7.6 mph12.2 kmh 30.91 in1046.7 mb 0.00 in0.0 mm 0.00 in/hr0.0 mm/hr 0.00 in0.0 mm
03:54 AM 34.9°F1.6°C 15.7°F-9.1°C 45% 5.4 mph E8.7 kmh E 7.6 mph12.2 kmh 30.91 in1046.7 mb 0.00 in0.0 mm 0.00 in/hr0.0 mm/hr 0.00 in0.0 mm
03:53 AM 34.9°F1.6°C 16.2°F-8.8°C 46% 3.8 mph E6.1 kmh E 7.6 mph12.2 kmh 30.91 in1046.7 mb 0.00 in0.0 mm 0.00 in/hr0.0 mm/hr 0.00 in0.0 mm
03:52 AM 34.9°F1.6°C 16.2°F-8.8°C 46% 3.8 mph E6.1 kmh E 7.6 mph12.2 kmh 30.91 in1046.7 mb 0.00 in0.0 mm 0.00 in/hr0.0 mm/hr 0.00 in0.0 mm
03:51 AM 34.5°F1.4°C 15.9°F-8.9°C 46% 4.5 mph E7.2 kmh E 7.6 mph12.2 kmh 30.91 in1046.7 mb 0.00 in0.0 mm 0.00 in/hr0.0 mm/hr 0.00 in0.0 mm
03:50 AM 34.5°F1.4°C 15.4°F-9.2°C 45% 3.8 mph E6.1 kmh E 7.6 mph12.2 kmh 30.91 in1046.7 mb 0.00 in0.0 mm 0.00 in/hr0.0 mm/hr 0.00 in0.0 mm
03:49 AM 34.7°F1.5°C 15.6°F-9.1°C 45% 3.8 mph ESE6.1 kmh ESE 7.6 mph12.2 kmh 30.91 in1046.7 mb 0.00 in0.0 mm 0.00 in/hr0.0 mm/hr 0.00 in0.0 mm
03:48 AM 34.9°F1.6°C 15.7°F-9.1°C 45% 3.1 mph ESE5.0 kmh ESE 7.6 mph12.2 kmh 30.91 in1046.7 mb 0.00 in0.0 mm 0.00 in/hr0.0 mm/hr 0.00 in0.0 mm
03:47 AM 34.7°F1.5°C 15.6°F-9.1°C 45% 6.0 mph ESE9.7 kmh ESE 8.3 mph13.4 kmh 30.91 in1046.7 mb 0.00 in0.0 mm 0.00 in/hr0.0 mm/hr 0.00 in0.0 mm
03:46 AM 34.9°F1.6°C 15.7°F-9.1°C 45% 3.8 mph ESE6.1 kmh ESE 8.3 mph13.4 kmh 30.90 in1046.4 mb 0.00 in0.0 mm 0.00 in/hr0.0 mm/hr 0.00 in0.0 mm
03:45 AM 34.7°F1.5°C 15.6°F-9.1°C 45% 4.5 mph E7.2 kmh E 8.3 mph13.4 kmh 30.91 in1046.7 mb 0.00 in0.0 mm 0.00 in/hr0.0 mm/hr 0.00 in0.0 mm
03:44 AM 34.7°F1.5°C 15.6°F-9.1°C 45% 3.1 mph E5.0 kmh E 8.3 mph13.4 kmh 30.91 in1046.7 mb 0.00 in0.0 mm 0.00 in/hr0.0 mm/hr 0.00 in0.0 mm
03:43 AM 34.9°F1.6°C 15.7°F-9.1°C 45% 4.5 mph E7.2 kmh E 8.3 mph13.4 kmh 30.91 in1046.7 mb 0.00 in0.0 mm 0.00 in/hr0.0 mm/hr 0.00 in0.0 mm
03:42 AM 34.9°F1.6°C 15.7°F-9.1°C 45% 4.5 mph E7.2 kmh E 9.8 mph15.8 kmh 30.91 in1046.7 mb 0.00 in0.0 mm 0.00 in/hr0.0 mm/hr 0.00 in0.0 mm
03:41 AM 34.9°F1.6°C 15.7°F-9.1°C 45% 6.0 mph E9.7 kmh E 10.7 mph17.2 kmh 30.91 in1046.7 mb 0.00 in0.0 mm 0.00 in/hr0.0 mm/hr 0.00 in0.0 mm
03:40 AM 34.9°F1.6°C 14.7°F-9.6°C 43% 3.1 mph E5.0 kmh E 10.7 mph17.2 kmh 30.91 in1046.7 mb 0.00 in0.0 mm 0.00 in/hr0.0 mm/hr 0.00 in0.0 mm
03:39 AM 35.1°F1.7°C 14.9°F-9.5°C 43% 5.4 mph E8.7 kmh E 10.7 mph17.2 kmh 30.91 in1046.7 mb 0.00 in0.0 mm 0.00 in/hr0.0 mm/hr 0.00 in0.0 mm
03:38 AM 35.1°F1.7°C 14.9°F-9.5°C 43% 4.5 mph E7.2 kmh E 10.7 mph17.2 kmh 30.91 in1046.7 mb 0.00 in0.0 mm 0.00 in/hr0.0 mm/hr 0.00 in0.0 mm
03:37 AM 35.1°F1.7°C 14.9°F-9.5°C 43% 5.4 mph E8.7 kmh E 10.7 mph17.2 kmh 30.91 in1046.7 mb 0.00 in0.0 mm 0.00 in/hr0.0 mm/hr 0.00 in0.0 mm
03:36 AM 35.2°F1.8°C 15.0°F-9.4°C 43% 6.0 mph E9.7 kmh E 10.7 mph17.2 kmh 30.91 in1046.7 mb 0.00 in0.0 mm 0.00 in/hr0.0 mm/hr 0.00 in0.0 mm
03:35 AM 35.2°F1.8°C 15.0°F-9.4°C 43% 4.5 mph E7.2 kmh E 10.7 mph17.2 kmh 30.91 in1046.7 mb 0.00 in0.0 mm 0.00 in/hr0.0 mm/hr 0.00 in0.0 mm
03:34 AM 35.2°F1.8°C 15.0°F-9.4°C 43% 6.9 mph E11.1 kmh E 10.7 mph17.2 kmh 30.90 in1046.4 mb 0.00 in0.0 mm 0.00 in/hr0.0 mm/hr 0.00 in0.0 mm
03:33 AM 35.2°F1.8°C 15.0°F-9.4°C 43% 6.0 mph E9.7 kmh E 10.7 mph17.2 kmh 30.91 in1046.7 mb 0.00 in0.0 mm 0.00 in/hr0.0 mm/hr 0.00 in0.0 mm
03:32 AM 35.2°F1.8°C 15.0°F-9.4°C 43% 6.0 mph E9.7 kmh E 10.7 mph17.2 kmh 30.91 in1046.7 mb 0.00 in0.0 mm 0.00 in/hr0.0 mm/hr 0.00 in0.0 mm
03:31 AM 35.2°F1.8°C 15.0°F-9.4°C 43% 4.5 mph E7.2 kmh E 9.8 mph15.8 kmh 30.91 in1046.7 mb 0.00 in0.0 mm 0.00 in/hr0.0 mm/hr 0.00 in0.0 mm
03:30 AM 35.2°F1.8°C 15.0°F-9.4°C 43% 6.0 mph E9.7 kmh E 9.8 mph15.8 kmh 30.91 in1046.7 mb 0.00 in0.0 mm 0.00 in/hr0.0 mm/hr 0.00 in0.0 mm
03:29 AM 35.2°F1.8°C 15.0°F-9.4°C 43% 5.4 mph E8.7 kmh E 9.8 mph15.8 kmh 30.91 in1046.7 mb 0.00 in0.0 mm 0.00 in/hr0.0 mm/hr 0.00 in0.0 mm
03:28 AM 35.4°F1.9°C 15.2°F-9.3°C 43% 6.0 mph E9.7 kmh E 9.8 mph15.8 kmh 30.91 in1046.7 mb 0.00 in0.0 mm 0.00 in/hr0.0 mm/hr 0.00 in0.0 mm
03:27 AM 35.4°F1.9°C 15.2°F-9.3°C 43% 6.0 mph E9.7 kmh E 9.8 mph15.8 kmh 30.91 in1046.7 mb 0.00 in0.0 mm 0.00 in/hr0.0 mm/hr 0.00 in0.0 mm
03:26 AM 35.4°F1.9°C 15.2°F-9.3°C 43% 6.0 mph E9.7 kmh E 9.8 mph15.8 kmh 30.90 in1046.4 mb 0.00 in0.0 mm 0.00 in/hr0.0 mm/hr 0.00 in0.0 mm
03:25 AM 35.4°F1.9°C 15.2°F-9.3°C 43% 6.0 mph E9.7 kmh E 9.8 mph15.8 kmh 30.91 in1046.7 mb 0.00 in0.0 mm 0.00 in/hr0.0 mm/hr 0.00 in0.0 mm
03:24 AM 35.2°F1.8°C 15.0°F-9.4°C 43% 7.6 mph ESE12.2 kmh ESE 9.8 mph15.8 kmh 30.91 in1046.7 mb 0.00 in0.0 mm 0.00 in/hr0.0 mm/hr 0.00 in0.0 mm
03:23 AM 35.4°F1.9°C 15.2°F-9.3°C 43% 6.0 mph ESE9.7 kmh ESE 9.8 mph15.8 kmh 30.91 in1046.7 mb 0.00 in0.0 mm 0.00 in/hr0.0 mm/hr 0.00 in0.0 mm
03:22 AM 35.2°F1.8°C 15.0°F-9.4°C 43% 7.6 mph E12.2 kmh E 9.8 mph15.8 kmh 30.91 in1046.7 mb 0.00 in0.0 mm 0.00 in/hr0.0 mm/hr 0.00 in0.0 mm
03:21 AM 35.2°F1.8°C 15.0°F-9.4°C 43% 5.4 mph ESE8.7 kmh ESE 9.8 mph15.8 kmh 30.91 in1046.7 mb 0.00 in0.0 mm 0.00 in/hr0.0 mm/hr 0.00 in0.0 mm
03:20 AM 35.1°F1.7°C 14.9°F-9.5°C 43% 5.4 mph ESE8.7 kmh ESE 9.8 mph15.8 kmh 30.91 in1046.7 mb 0.00 in0.0 mm 0.00 in/hr0.0 mm/hr 0.00 in0.0 mm
03:19 AM 35.4°F1.9°C 16.2°F-8.8°C 45% 6.0 mph ESE9.7 kmh ESE 9.8 mph15.8 kmh 30.91 in1046.7 mb 0.00 in0.0 mm 0.00 in/hr0.0 mm/hr 0.00 in0.0 mm
03:18 AM 35.2°F1.8°C 16.1°F-8.8°C 45% 6.0 mph E9.7 kmh E 9.8 mph15.8 kmh 30.91 in1046.7 mb 0.00 in0.0 mm 0.00 in/hr0.0 mm/hr 0.00 in0.0 mm
03:17 AM 35.2°F1.8°C 16.1°F-8.8°C 45% 6.9 mph E11.1 kmh E 9.8 mph15.8 kmh 30.91 in1046.7 mb 0.00 in0.0 mm 0.00 in/hr0.0 mm/hr 0.00 in0.0 mm
03:16 AM 35.2°F1.8°C 16.1°F-8.8°C 45% 5.4 mph E8.7 kmh E 9.8 mph15.8 kmh 30.91 in1046.7 mb 0.00 in0.0 mm 0.00 in/hr0.0 mm/hr 0.00 in0.0 mm
03:15 AM 34.9°F1.6°C 15.7°F-9.1°C 45% 6.0 mph E9.7 kmh E 8.3 mph13.4 kmh 30.91 in1046.7 mb 0.00 in0.0 mm 0.00 in/hr0.0 mm/hr 0.00 in0.0 mm
03:14 AM 35.2°F1.8°C 16.1°F-8.8°C 45% 4.5 mph E7.2 kmh E 7.6 mph12.2 kmh 30.91 in1046.7 mb 0.00 in0.0 mm 0.00 in/hr0.0 mm/hr 0.00 in0.0 mm
03:13 AM 35.1°F1.7°C 15.9°F-8.9°C 45% 5.4 mph E8.7 kmh E 7.6 mph12.2 kmh 30.91 in1046.7 mb 0.00 in0.0 mm 0.00 in/hr0.0 mm/hr 0.00 in0.0 mm
03:12 AM 35.1°F1.7°C 16.4°F-8.7°C 46% 5.4 mph E8.7 kmh E 7.6 mph12.2 kmh 30.91 in1046.7 mb 0.00 in0.0 mm 0.00 in/hr0.0 mm/hr 0.00 in0.0 mm
03:11 AM 34.9°F1.6°C 16.2°F-8.8°C 46% 3.8 mph E6.1 kmh E 7.6 mph12.2 kmh 30.91 in1046.7 mb 0.00 in0.0 mm 0.00 in/hr0.0 mm/hr 0.00 in0.0 mm
03:10 AM 34.7°F1.5°C 16.1°F-8.8°C 46% 4.5 mph E7.2 kmh E 7.6 mph12.2 kmh 30.90 in1046.4 mb 0.00 in0.0 mm 0.00 in/hr0.0 mm/hr 0.00 in0.0 mm
03:09 AM 34.9°F1.6°C 16.2°F-8.8°C 46% 3.8 mph E6.1 kmh E 7.6 mph12.2 kmh 30.90 in1046.4 mb 0.00 in0.0 mm 0.00 in/hr0.0 mm/hr 0.00 in0.0 mm
03:08 AM 34.9°F1.6°C 16.2°F-8.8°C 46% 4.5 mph E7.2 kmh E 7.6 mph12.2 kmh 30.90 in1046.4 mb 0.00 in0.0 mm 0.00 in/hr0.0 mm/hr 0.00 in0.0 mm
03:07 AM 34.9°F1.6°C 16.2°F-8.8°C 46% 3.8 mph E6.1 kmh E 7.6 mph12.2 kmh 30.90 in1046.4 mb 0.00 in0.0 mm 0.00 in/hr0.0 mm/hr 0.00 in0.0 mm
03:06 AM 35.1°F1.7°C 16.4°F-8.7°C 46% 3.8 mph E6.1 kmh E 7.6 mph12.2 kmh 30.90 in1046.4 mb 0.00 in0.0 mm 0.00 in/hr0.0 mm/hr 0.00 in0.0 mm
03:05 AM 35.1°F1.7°C 16.4°F-8.7°C 46% 4.5 mph E7.2 kmh E 7.6 mph12.2 kmh 30.90 in1046.4 mb 0.00 in0.0 mm 0.00 in/hr0.0 mm/hr 0.00 in0.0 mm
03:04 AM 34.9°F1.6°C 16.2°F-8.8°C 46% 5.4 mph E8.7 kmh E 7.6 mph12.2 kmh 30.90 in1046.4 mb 0.00 in0.0 mm 0.00 in/hr0.0 mm/hr 0.00 in0.0 mm
03:03 AM 34.9°F1.6°C 16.2°F-8.8°C 46% 3.8 mph ESE6.1 kmh ESE 6.9 mph11.1 kmh 30.90 in1046.4 mb 0.00 in0.0 mm 0.00 in/hr0.0 mm/hr 0.00 in0.0 mm
03:02 AM 35.1°F1.7°C 16.4°F-8.7°C 46% 3.8 mph E6.1 kmh E 6.9 mph11.1 kmh 30.90 in1046.4 mb 0.00 in0.0 mm 0.00 in/hr0.0 mm/hr 0.00 in0.0 mm
03:01 AM 34.9°F1.6°C 16.7°F-8.5°C 47% 4.5 mph E7.2 kmh E 6.9 mph11.1 kmh 30.90 in1046.4 mb 0.00 in0.0 mm 0.00 in/hr0.0 mm/hr 0.00 in0.0 mm
03:00 AM 34.9°F1.6°C 16.7°F-8.5°C 47% 3.8 mph E6.1 kmh E 6.9 mph11.1 kmh 30.90 in1046.4 mb 0.00 in0.0 mm 0.00 in/hr0.0 mm/hr 0.00 in0.0 mm
02:59 AM 34.9°F1.6°C 16.7°F-8.5°C 47% 3.8 mph E6.1 kmh E 6.9 mph11.1 kmh 30.90 in1046.4 mb 0.00 in0.0 mm 0.00 in/hr0.0 mm/hr 0.00 in0.0 mm
02:58 AM 34.9°F1.6°C 16.7°F-8.5°C 47% 4.5 mph E7.2 kmh E 6.9 mph11.1 kmh 30.90 in1046.4 mb 0.00 in0.0 mm 0.00 in/hr0.0 mm/hr 0.00 in0.0 mm
02:57 AM 34.9°F1.6°C 16.7°F-8.5°C 47% 4.5 mph ESE7.2 kmh ESE 6.9 mph11.1 kmh 30.90 in1046.4 mb 0.00 in0.0 mm 0.00 in/hr0.0 mm/hr 0.00 in0.0 mm
02:56 AM 34.7°F1.5°C 16.6°F-8.6°C 47% 4.5 mph ESE7.2 kmh ESE 6.9 mph11.1 kmh 30.90 in1046.4 mb 0.00 in0.0 mm 0.00 in/hr0.0 mm/hr 0.00 in0.0 mm
02:55 AM 34.9°F1.6°C 16.7°F-8.5°C 47% 3.8 mph ESE6.1 kmh ESE 6.9 mph11.1 kmh 30.90 in1046.4 mb 0.00 in0.0 mm 0.00 in/hr0.0 mm/hr 0.00 in0.0 mm
02:54 AM 35.1°F1.7°C 16.9°F-8.4°C 47% 5.4 mph E8.7 kmh E 6.9 mph11.1 kmh 30.90 in1046.4 mb 0.00 in0.0 mm 0.00 in/hr0.0 mm/hr 0.00 in0.0 mm
02:53 AM 34.9°F1.6°C 17.2°F-8.2°C 48% 4.5 mph E7.2 kmh E 6.9 mph11.1 kmh 30.90 in1046.4 mb 0.00 in0.0 mm 0.00 in/hr0.0 mm/hr 0.00 in0.0 mm
02:52 AM 34.9°F1.6°C 17.2°F-8.2°C 48% 4.5 mph E7.2 kmh E 6.9 mph11.1 kmh 30.90 in1046.4 mb 0.00 in0.0 mm 0.00 in/hr0.0 mm/hr 0.00 in0.0 mm
02:51 AM 34.7°F1.5°C 17.0°F-8.3°C 48% 5.4 mph E8.7 kmh E 7.6 mph12.2 kmh 30.90 in1046.4 mb 0.00 in0.0 mm 0.00 in/hr0.0 mm/hr 0.00 in0.0 mm
02:50 AM 34.7°F1.5°C 17.0°F-8.3°C 48% 3.8 mph E6.1 kmh E 7.6 mph12.2 kmh 30.90 in1046.4 mb 0.00 in0.0 mm 0.00 in/hr0.0 mm/hr 0.00 in0.0 mm
02:49 AM 34.7°F1.5°C 17.0°F-8.3°C 48% 3.1 mph E5.0 kmh E 7.6 mph12.2 kmh 30.90 in1046.4 mb 0.00 in0.0 mm 0.00 in/hr0.0 mm/hr 0.00 in0.0 mm
02:48 AM 34.7°F1.5°C 17.0°F-8.3°C 48% 3.1 mph E5.0 kmh E 7.6 mph12.2 kmh 30.90 in1046.4 mb 0.00 in0.0 mm 0.00 in/hr0.0 mm/hr 0.00 in0.0 mm
02:47 AM 34.7°F1.5°C 17.0°F-8.3°C 48% 3.1 mph E5.0 kmh E 7.6 mph12.2 kmh 30.90 in1046.4 mb 0.00 in0.0 mm 0.00 in/hr0.0 mm/hr 0.00 in0.0 mm
02:46 AM 34.7°F1.5°C 17.0°F-8.3°C 48% 3.8 mph E6.1 kmh E 7.6 mph12.2 kmh 30.90 in1046.4 mb 0.00 in0.0 mm 0.00 in/hr0.0 mm/hr 0.00 in0.0 mm
02:45 AM 34.7°F1.5°C 17.0°F-8.3°C 48% 5.4 mph E8.7 kmh E 7.6 mph12.2 kmh 30.90 in1046.4 mb 0.00 in0.0 mm 0.00 in/hr0.0 mm/hr 0.00 in0.0 mm
02:44 AM 34.7°F1.5°C 17.0°F-8.3°C 48% 3.8 mph E6.1 kmh E 7.6 mph12.2 kmh 30.90 in1046.4 mb 0.00 in0.0 mm 0.00 in/hr0.0 mm/hr 0.00 in0.0 mm
02:43 AM 34.7°F1.5°C 17.0°F-8.3°C 48% 3.8 mph E6.1 kmh E 7.6 mph12.2 kmh 30.91 in1046.7 mb 0.00 in0.0 mm 0.00 in/hr0.0 mm/hr 0.00 in0.0 mm
02:42 AM 34.9°F1.6°C 17.2°F-8.2°C 48% 3.8 mph E6.1 kmh E 7.6 mph12.2 kmh 30.90 in1046.4 mb 0.00 in0.0 mm 0.00 in/hr0.0 mm/hr 0.00 in0.0 mm
02:41 AM 34.9°F1.6°C 17.2°F-8.2°C 48% 4.5 mph E7.2 kmh E 7.6 mph12.2 kmh 30.90 in1046.4 mb 0.00 in0.0 mm 0.00 in/hr0.0 mm/hr 0.00 in0.0 mm
02:40 AM 34.9°F1.6°C 17.2°F-8.2°C 48% 4.5 mph E7.2 kmh E 7.6 mph12.2 kmh 30.90 in1046.4 mb 0.00 in0.0 mm 0.00 in/hr0.0 mm/hr 0.00 in0.0 mm
02:39 AM 34.9°F1.6°C 17.2°F-8.2°C 48% 4.5 mph E7.2 kmh E 7.6 mph12.2 kmh 30.90 in1046.4 mb 0.00 in0.0 mm 0.00 in/hr0.0 mm/hr 0.00 in0.0 mm
02:38 AM 34.9°F1.6°C 17.2°F-8.2°C 48% 4.5 mph E7.2 kmh E 7.6 mph12.2 kmh 30.90 in1046.4 mb 0.00 in0.0 mm 0.00 in/hr0.0 mm/hr 0.00 in0.0 mm
02:37 AM 34.9°F1.6°C 17.2°F-8.2°C 48% 4.5 mph ESE7.2 kmh ESE 7.6 mph12.2 kmh 30.90 in1046.4 mb 0.00 in0.0 mm 0.00 in/hr0.0 mm/hr 0.00 in0.0 mm
02:36 AM 34.9°F1.6°C 17.2°F-8.2°C 48% 4.5 mph ESE7.2 kmh ESE 7.6 mph12.2 kmh 30.90 in1046.4 mb 0.00 in0.0 mm 0.00 in/hr0.0 mm/hr 0.00 in0.0 mm
02:35 AM 34.9°F1.6°C 17.2°F-8.2°C 48% 4.5 mph ESE7.2 kmh ESE 7.6 mph12.2 kmh 30.90 in1046.4 mb 0.00 in0.0 mm 0.00 in/hr0.0 mm/hr 0.00 in0.0 mm
02:34 AM 34.9°F1.6°C 17.2°F-8.2°C 48% 3.8 mph ESE6.1 kmh ESE 7.6 mph12.2 kmh 30.90 in1046.4 mb 0.00 in0.0 mm 0.00 in/hr0.0 mm/hr 0.00 in0.0 mm
02:33 AM 34.9°F1.6°C 17.2°F-8.2°C 48% 5.4 mph ESE8.7 kmh ESE 7.6 mph12.2 kmh 30.90 in1046.4 mb 0.00 in0.0 mm 0.00 in/hr0.0 mm/hr 0.00 in0.0 mm
02:32 AM 34.9°F1.6°C 17.2°F-8.2°C 48% 3.8 mph E6.1 kmh E 7.6 mph12.2 kmh 30.90 in1046.4 mb 0.00 in0.0 mm 0.00 in/hr0.0 mm/hr 0.00 in0.0 mm
02:31 AM 34.9°F1.6°C 17.2°F-8.2°C 48% 4.5 mph E7.2 kmh E 7.6 mph12.2 kmh 30.90 in1046.4 mb 0.00 in0.0 mm 0.00 in/hr0.0 mm/hr 0.00 in0.0 mm
02:30 AM 34.9°F1.6°C 17.2°F-8.2°C 48% 4.5 mph E7.2 kmh E 7.6 mph12.2 kmh 30.90 in1046.4 mb 0.00 in0.0 mm 0.00 in/hr0.0 mm/hr 0.00 in0.0 mm
02:29 AM 34.9°F1.6°C 17.2°F-8.2°C 48% 4.5 mph E7.2 kmh E 7.6 mph12.2 kmh 30.90 in1046.4 mb 0.00 in0.0 mm 0.00 in/hr0.0 mm/hr 0.00 in0.0 mm
02:28 AM 35.1°F1.7°C 17.4°F-8.1°C 48% 3.8 mph E6.1 kmh E 7.6 mph12.2 kmh 30.90 in1046.4 mb 0.00 in0.0 mm 0.00 in/hr0.0 mm/hr 0.00 in0.0 mm
02:27 AM 35.1°F1.7°C 17.4°F-8.1°C 48% 4.5 mph E7.2 kmh E 7.6 mph12.2 kmh 30.90 in1046.4 mb 0.00 in0.0 mm 0.00 in/hr0.0 mm/hr 0.00 in0.0 mm
02:26 AM 34.9°F1.6°C 17.2°F-8.2°C 48% 5.4 mph E8.7 kmh E 7.6 mph12.2 kmh 30.90 in1046.4 mb 0.00 in0.0 mm 0.00 in/hr0.0 mm/hr 0.00 in0.0 mm
02:25 AM 34.9°F1.6°C 17.2°F-8.2°C 48% 4.5 mph E7.2 kmh E 6.0 mph9.7 kmh 30.90 in1046.4 mb 0.00 in0.0 mm 0.00 in/hr0.0 mm/hr 0.00 in0.0 mm
02:24 AM 34.9°F1.6°C 17.2°F-8.2°C 48% 3.8 mph E6.1 kmh E 6.0 mph9.7 kmh 30.90 in1046.4 mb 0.00 in0.0 mm 0.00 in/hr0.0 mm/hr 0.00 in0.0 mm
02:23 AM 34.7°F1.5°C 17.0°F-8.3°C 48% 3.8 mph E6.1 kmh E 6.0 mph9.7 kmh 30.90 in1046.4 mb 0.00 in0.0 mm 0.00 in/hr0.0 mm/hr 0.00 in0.0 mm
02:22 AM 34.9°F1.6°C 16.7°F-8.5°C 47% 2.2 mph E3.5 kmh E 6.0 mph9.7 kmh 30.90 in1046.4 mb 0.00 in0.0 mm 0.00 in/hr0.0 mm/hr 0.00 in0.0 mm
02:21 AM 34.9°F1.6°C 16.7°F-8.5°C 47% 3.1 mph E5.0 kmh E 6.0 mph9.7 kmh 30.91 in1046.7 mb 0.00 in0.0 mm 0.00 in/hr0.0 mm/hr 0.00 in0.0 mm
02:20 AM 35.1°F1.7°C 16.9°F-8.4°C 47% 3.1 mph E5.0 kmh E 6.0 mph9.7 kmh 30.90 in1046.4 mb 0.00 in0.0 mm 0.00 in/hr0.0 mm/hr 0.00 in0.0 mm
02:19 AM 34.9°F1.6°C 16.7°F-8.5°C 47% 3.8 mph E6.1 kmh E 6.0 mph9.7 kmh 30.90 in1046.4 mb 0.00 in0.0 mm 0.00 in/hr0.0 mm/hr 0.00 in0.0 mm
02:18 AM 35.1°F1.7°C 16.9°F-8.4°C 47% 3.8 mph E6.1 kmh E 6.0 mph9.7 kmh 30.90 in1046.4 mb 0.00 in0.0 mm 0.00 in/hr0.0 mm/hr 0.00 in0.0 mm
02:17 AM 35.1°F1.7°C 16.9°F-8.4°C 47% 3.1 mph E5.0 kmh E 6.0 mph9.7 kmh 30.90 in1046.4 mb 0.00 in0.0 mm 0.00 in/hr0.0 mm/hr 0.00 in0.0 mm
02:16 AM 35.2°F1.8°C 17.1°F-8.3°C 47% 4.5 mph E7.2 kmh E 6.0 mph9.7 kmh 30.90 in1046.4 mb 0.00 in0.0 mm 0.00 in/hr0.0 mm/hr 0.00 in0.0 mm
02:15 AM 35.1°F1.7°C 16.9°F-8.4°C 47% 4.5 mph E7.2 kmh E 6.0 mph9.7 kmh 30.90 in1046.4 mb 0.00 in0.0 mm 0.00 in/hr0.0 mm/hr 0.00 in0.0 mm
02:14 AM 35.1°F1.7°C 16.9°F-8.4°C 47% 3.1 mph E5.0 kmh E 6.0 mph9.7 kmh 30.91 in1046.7 mb 0.00 in0.0 mm 0.00 in/hr0.0 mm/hr 0.00 in0.0 mm
02:13 AM 34.9°F1.6°C 16.7°F-8.5°C 47% 3.1 mph E5.0 kmh E 6.0 mph9.7 kmh 30.91 in1046.7 mb 0.00 in0.0 mm 0.00 in/hr0.0 mm/hr 0.00 in0.0 mm
02:12 AM 34.9°F1.6°C 16.7°F-8.5°C 47% 2.2 mph E3.5 kmh E 4.5 mph7.2 kmh 30.91 in1046.7 mb 0.00 in0.0 mm 0.00 in/hr0.0 mm/hr 0.00 in0.0 mm
02:11 AM 35.1°F1.7°C 16.4°F-8.7°C 46% 3.1 mph E5.0 kmh E 4.5 mph7.2 kmh 30.90 in1046.4 mb 0.00 in0.0 mm 0.00 in/hr0.0 mm/hr 0.00 in0.0 mm
02:10 AM 35.2°F1.8°C 16.6°F-8.6°C 46% 3.1 mph ENE5.0 kmh ENE 4.5 mph7.2 kmh 30.91 in1046.7 mb 0.00 in0.0 mm 0.00 in/hr0.0 mm/hr 0.00 in0.0 mm
02:09 AM 35.2°F1.8°C 16.6°F-8.6°C 46% 3.1 mph ENE5.0 kmh ENE 4.5 mph7.2 kmh 30.91 in1046.7 mb 0.00 in0.0 mm 0.00 in/hr0.0 mm/hr 0.00 in0.0 mm
02:08 AM 35.2°F1.8°C 16.6°F-8.6°C 46% 3.1 mph ENE5.0 kmh ENE 4.5 mph7.2 kmh 30.91 in1046.7 mb 0.00 in0.0 mm 0.00 in/hr0.0 mm/hr 0.00 in0.0 mm
02:07 AM 35.4°F1.9°C 16.2°F-8.8°C 45% 3.1 mph E5.0 kmh E 4.5 mph7.2 kmh 30.91 in1046.7 mb 0.00 in0.0 mm 0.00 in/hr0.0 mm/hr 0.00 in0.0 mm
02:06 AM 35.4°F1.9°C 16.2°F-8.8°C 45% 3.1 mph E5.0 kmh E 4.5 mph7.2 kmh 30.91 in1046.7 mb 0.00 in0.0 mm 0.00 in/hr0.0 mm/hr 0.00 in0.0 mm
02:05 AM 35.4°F1.9°C 16.2°F-8.8°C 45% 3.1 mph E5.0 kmh E 4.5 mph7.2 kmh 30.91 in1046.7 mb 0.00 in0.0 mm 0.00 in/hr0.0 mm/hr 0.00 in0.0 mm
02:04 AM 35.4°F1.9°C 16.2°F-8.8°C 45% 3.1 mph E5.0 kmh E 4.5 mph7.2 kmh 30.91 in1046.7 mb 0.00 in0.0 mm 0.00 in/hr0.0 mm/hr 0.00 in0.0 mm
02:03 AM 35.4°F1.9°C 16.2°F-8.8°C 45% 3.1 mph E5.0 kmh E 4.5 mph7.2 kmh 30.91 in1046.7 mb 0.00 in0.0 mm 0.00 in/hr0.0 mm/hr 0.00 in0.0 mm
02:02 AM 35.4°F1.9°C 16.2°F-8.8°C 45% 3.1 mph E5.0 kmh E 4.5 mph7.2 kmh 30.91 in1046.7 mb 0.00 in0.0 mm 0.00 in/hr0.0 mm/hr 0.00 in0.0 mm
02:01 AM 35.4°F1.9°C 16.2°F-8.8°C 45% 3.1 mph E5.0 kmh E 4.5 mph7.2 kmh 30.91 in1046.7 mb 0.00 in0.0 mm 0.00 in/hr0.0 mm/hr 0.00 in0.0 mm
02:00 AM 35.4°F1.9°C 16.2°F-8.8°C 45% 3.1 mph E5.0 kmh E 4.5 mph7.2 kmh 30.91 in1046.7 mb 0.00 in0.0 mm 0.00 in/hr0.0 mm/hr 0.00 in0.0 mm
01:59 AM 35.4°F1.9°C 16.2°F-8.8°C 45% 1.6 mph ESE2.6 kmh ESE 4.5 mph7.2 kmh 30.91 in1046.7 mb 0.00 in0.0 mm 0.00 in/hr0.0 mm/hr 0.00 in0.0 mm
01:58 AM 35.4°F1.9°C 16.2°F-8.8°C 45% 1.6 mph E2.6 kmh E 4.5 mph7.2 kmh 30.91 in1046.7 mb 0.00 in0.0 mm 0.00 in/hr0.0 mm/hr 0.00 in0.0 mm
01:57 AM 35.2°F1.8°C 16.1°F-8.8°C 45% 3.1 mph ESE5.0 kmh ESE 4.5 mph7.2 kmh 30.91 in1046.7 mb 0.00 in0.0 mm 0.00 in/hr0.0 mm/hr 0.00 in0.0 mm
01:56 AM 35.4°F1.9°C 16.2°F-8.8°C 45% 1.6 mph ESE2.6 kmh ESE 4.5 mph7.2 kmh 30.91 in1046.7 mb 0.00 in0.0 mm 0.00 in/hr0.0 mm/hr 0.00 in0.0 mm
01:55 AM 35.4°F1.9°C 16.2°F-8.8°C 45% 2.2 mph ESE3.5 kmh ESE 4.5 mph7.2 kmh 30.91 in1046.7 mb 0.00 in0.0 mm 0.00 in/hr0.0 mm/hr 0.00 in0.0 mm
01:54 AM 35.2°F1.8°C 16.1°F-8.8°C 45% 2.2 mph ESE3.5 kmh ESE 4.5 mph7.2 kmh 30.91 in1046.7 mb 0.00 in0.0 mm 0.00 in/hr0.0 mm/hr 0.00 in0.0 mm
01:53 AM 35.4°F1.9°C 16.2°F-8.8°C 45% 1.6 mph ESE2.6 kmh ESE 4.5 mph7.2 kmh 30.91 in1046.7 mb 0.00 in0.0 mm 0.00 in/hr0.0 mm/hr 0.00 in0.0 mm
01:52 AM 35.4°F1.9°C 16.2°F-8.8°C 45% 1.6 mph E2.6 kmh E 4.5 mph7.2 kmh 30.91 in1046.7 mb 0.00 in0.0 mm 0.00 in/hr0.0 mm/hr 0.00 in0.0 mm
01:51 AM 35.4°F1.9°C 16.7°F-8.5°C 46% 2.2 mph ESE3.5 kmh ESE 4.5 mph7.2 kmh 30.91 in1046.7 mb 0.00 in0.0 mm 0.00 in/hr0.0 mm/hr 0.00 in0.0 mm
01:50 AM 35.6°F2.0°C 16.4°F-8.7°C 45% 1.6 mph ESE2.6 kmh ESE 4.5 mph7.2 kmh 30.91 in1046.7 mb 0.00 in0.0 mm 0.00 in/hr0.0 mm/hr 0.00 in0.0 mm
01:49 AM 35.4°F1.9°C 16.7°F-8.5°C 46% 2.2 mph E3.5 kmh E 4.5 mph7.2 kmh 30.91 in1046.7 mb 0.00 in0.0 mm 0.00 in/hr0.0 mm/hr 0.00 in0.0 mm
01:48 AM 35.2°F1.8°C 16.6°F-8.6°C 46% 3.1 mph E5.0 kmh E 4.5 mph7.2 kmh 30.91 in1046.7 mb 0.00 in0.0 mm 0.00 in/hr0.0 mm/hr 0.00 in0.0 mm
01:47 AM 35.4°F1.9°C 16.7°F-8.5°C 46% 1.6 mph E2.6 kmh E 3.8 mph6.1 kmh 30.91 in1046.7 mb 0.00 in0.0 mm 0.00 in/hr0.0 mm/hr 0.00 in0.0 mm
01:46 AM 35.4°F1.9°C 16.7°F-8.5°C 46% 3.1 mph E5.0 kmh E 3.8 mph6.1 kmh 30.91 in1046.7 mb 0.00 in0.0 mm 0.00 in/hr0.0 mm/hr 0.00 in0.0 mm
01:45 AM 35.4°F1.9°C 16.7°F-8.5°C 46% 2.2 mph E3.5 kmh E 3.8 mph6.1 kmh 30.91 in1046.7 mb 0.00 in0.0 mm 0.00 in/hr0.0 mm/hr 0.00 in0.0 mm
01:44 AM 35.2°F1.8°C 16.6°F-8.6°C 46% 1.6 mph E2.6 kmh E 3.8 mph6.1 kmh 30.91 in1046.7 mb 0.00 in0.0 mm 0.00 in/hr0.0 mm/hr 0.00 in0.0 mm
01:43 AM 35.4°F1.9°C 17.2°F-8.2°C 47% 1.6 mph ESE2.6 kmh ESE 3.8 mph6.1 kmh 30.91 in1046.7 mb 0.00 in0.0 mm 0.00 in/hr0.0 mm/hr 0.00 in0.0 mm
01:42 AM 35.4°F1.9°C 17.2°F-8.2°C 47% 1.6 mph ESE2.6 kmh ESE 3.8 mph6.1 kmh 30.91 in1046.7 mb 0.00 in0.0 mm 0.00 in/hr0.0 mm/hr 0.00 in0.0 mm
01:41 AM 35.2°F1.8°C 17.1°F-8.3°C 47% 3.1 mph ESE5.0 kmh ESE 3.8 mph6.1 kmh 30.91 in1046.7 mb 0.00 in0.0 mm 0.00 in/hr0.0 mm/hr 0.00 in0.0 mm
01:40 AM 35.2°F1.8°C 17.1°F-8.3°C 47% 1.6 mph ESE2.6 kmh ESE 3.8 mph6.1 kmh 30.91 in1046.7 mb 0.00 in0.0 mm 0.00 in/hr0.0 mm/hr 0.00 in0.0 mm
01:39 AM 35.2°F1.8°C 17.1°F-8.3°C 47% 1.6 mph ESE2.6 kmh ESE 3.8 mph6.1 kmh 30.91 in1046.7 mb 0.00 in0.0 mm 0.00 in/hr0.0 mm/hr 0.00 in0.0 mm
01:38 AM 35.2°F1.8°C 17.1°F-8.3°C 47% 1.6 mph ESE2.6 kmh ESE 3.8 mph6.1 kmh 30.91 in1046.7 mb 0.00 in0.0 mm 0.00 in/hr0.0 mm/hr 0.00 in0.0 mm
01:37 AM 35.2°F1.8°C 17.1°F-8.3°C 47% 2.2 mph ESE3.5 kmh ESE 3.8 mph6.1 kmh 30.91 in1046.7 mb 0.00 in0.0 mm 0.00 in/hr0.0 mm/hr 0.00 in0.0 mm
01:36 AM 35.2°F1.8°C 17.1°F-8.3°C 47% 2.2 mph ESE3.5 kmh ESE 3.8 mph6.1 kmh 30.91 in1046.7 mb 0.00 in0.0 mm 0.00 in/hr0.0 mm/hr 0.00 in0.0 mm
01:35 AM 35.2°F1.8°C 17.1°F-8.3°C 47% 1.6 mph ESE2.6 kmh ESE 3.8 mph6.1 kmh 30.91 in1046.7 mb 0.00 in0.0 mm 0.00 in/hr0.0 mm/hr 0.00 in0.0 mm
01:34 AM 35.2°F1.8°C 17.1°F-8.3°C 47% 0.7 mph ESE1.1 kmh ESE 3.8 mph6.1 kmh 30.91 in1046.7 mb 0.00 in0.0 mm 0.00 in/hr0.0 mm/hr 0.00 in0.0 mm
01:33 AM 35.4°F1.9°C 17.2°F-8.2°C 47% 1.6 mph E2.6 kmh E 3.8 mph6.1 kmh 30.91 in1046.7 mb 0.00 in0.0 mm 0.00 in/hr0.0 mm/hr 0.00 in0.0 mm
01:32 AM 35.6°F2.0°C 16.9°F-8.4°C 46% 1.6 mph E2.6 kmh E 5.4 mph8.7 kmh 30.91 in1046.7 mb 0.00 in0.0 mm 0.00 in/hr0.0 mm/hr 0.00 in0.0 mm
01:31 AM 35.4°F1.9°C 17.2°F-8.2°C 47% 1.6 mph E2.6 kmh E 5.4 mph8.7 kmh 30.91 in1046.7 mb 0.00 in0.0 mm 0.00 in/hr0.0 mm/hr 0.00 in0.0 mm
01:30 AM 35.4°F1.9°C 16.7°F-8.5°C 46% 1.6 mph E2.6 kmh E 5.4 mph8.7 kmh 30.91 in1046.7 mb 0.00 in0.0 mm 0.00 in/hr0.0 mm/hr 0.00 in0.0 mm
01:29 AM 35.4°F1.9°C 16.7°F-8.5°C 46% 1.6 mph E2.6 kmh E 5.4 mph8.7 kmh 30.91 in1046.7 mb 0.00 in0.0 mm 0.00 in/hr0.0 mm/hr 0.00 in0.0 mm
01:28 AM 35.4°F1.9°C 16.7°F-8.5°C 46% 1.6 mph E2.6 kmh E 5.4 mph8.7 kmh 30.91 in1046.7 mb 0.00 in0.0 mm 0.00 in/hr0.0 mm/hr 0.00 in0.0 mm
01:27 AM 35.6°F2.0°C 16.4°F-8.7°C 45% 1.6 mph E2.6 kmh E 5.4 mph8.7 kmh 30.91 in1046.7 mb 0.00 in0.0 mm 0.00 in/hr0.0 mm/hr 0.00 in0.0 mm
01:26 AM 35.6°F2.0°C 16.4°F-8.7°C 45% 2.2 mph E3.5 kmh E 5.4 mph8.7 kmh 30.91 in1046.7 mb 0.00 in0.0 mm 0.00 in/hr0.0 mm/hr 0.00 in0.0 mm
01:25 AM 35.6°F2.0°C 16.4°F-8.7°C 45% 2.2 mph E3.5 kmh E 5.4 mph8.7 kmh 30.91 in1046.7 mb 0.00 in0.0 mm 0.00 in/hr0.0 mm/hr 0.00 in0.0 mm
01:24 AM 35.8°F2.1°C 16.5°F-8.6°C 45% 2.2 mph E3.5 kmh E 5.4 mph8.7 kmh 30.90 in1046.4 mb 0.00 in0.0 mm 0.00 in/hr0.0 mm/hr 0.00 in0.0 mm
01:23 AM 35.8°F2.1°C 16.5°F-8.6°C 45% 3.8 mph E6.1 kmh E 5.4 mph8.7 kmh 30.91 in1046.7 mb 0.00 in0.0 mm 0.00 in/hr0.0 mm/hr 0.00 in0.0 mm
01:22 AM 35.8°F2.1°C 16.5°F-8.6°C 45% 3.1 mph E5.0 kmh E 5.4 mph8.7 kmh 30.90 in1046.4 mb 0.00 in0.0 mm 0.00 in/hr0.0 mm/hr 0.00 in0.0 mm
01:21 AM 35.8°F2.1°C 16.5°F-8.6°C 45% 2.2 mph E3.5 kmh E 4.5 mph7.2 kmh 30.91 in1046.7 mb 0.00 in0.0 mm 0.00 in/hr0.0 mm/hr 0.00 in0.0 mm
01:20 AM 35.6°F2.0°C 16.4°F-8.7°C 45% 3.1 mph E5.0 kmh E 4.5 mph7.2 kmh 30.91 in1046.7 mb 0.00 in0.0 mm 0.00 in/hr0.0 mm/hr 0.00 in0.0 mm
01:19 AM 35.8°F2.1°C 16.5°F-8.6°C 45% 2.2 mph E3.5 kmh E 4.5 mph7.2 kmh 30.91 in1046.7 mb 0.00 in0.0 mm 0.00 in/hr0.0 mm/hr 0.00 in0.0 mm
01:18 AM 35.8°F2.1°C 16.5°F-8.6°C 45% 2.2 mph E3.5 kmh E 4.5 mph7.2 kmh 30.91 in1046.7 mb 0.00 in0.0 mm 0.00 in/hr0.0 mm/hr 0.00 in0.0 mm
01:17 AM 35.6°F2.0°C 16.4°F-8.7°C 45% 3.8 mph E6.1 kmh E 4.5 mph7.2 kmh 30.91 in1046.7 mb 0.00 in0.0 mm 0.00 in/hr0.0 mm/hr 0.00 in0.0 mm
01:16 AM 35.6°F2.0°C 16.4°F-8.7°C 45% 2.2 mph E3.5 kmh E 4.5 mph7.2 kmh 30.91 in1046.7 mb 0.00 in0.0 mm 0.00 in/hr0.0 mm/hr 0.00 in0.0 mm
01:15 AM 35.8°F2.1°C 16.5°F-8.6°C 45% 2.2 mph E3.5 kmh E 4.5 mph7.2 kmh 30.91 in1046.7 mb 0.00 in0.0 mm 0.00 in/hr0.0 mm/hr 0.00 in0.0 mm
01:14 AM 35.8°F2.1°C 16.5°F-8.6°C 45% 3.1 mph E5.0 kmh E 5.4 mph8.7 kmh 30.90 in1046.4 mb 0.00 in0.0 mm 0.00 in/hr0.0 mm/hr 0.00 in0.0 mm
01:13 AM 35.6°F2.0°C 16.4°F-8.7°C 45% 2.2 mph ENE3.5 kmh ENE 5.4 mph8.7 kmh 30.91 in1046.7 mb 0.00 in0.0 mm 0.00 in/hr0.0 mm/hr 0.00 in0.0 mm
01:12 AM 35.8°F2.1°C 16.5°F-8.6°C 45% 2.2 mph ENE3.5 kmh ENE 5.4 mph8.7 kmh 30.91 in1046.7 mb 0.00 in0.0 mm 0.00 in/hr0.0 mm/hr 0.00 in0.0 mm
01:11 AM 35.8°F2.1°C 15.5°F-9.2°C 43% 2.2 mph ENE3.5 kmh ENE 5.4 mph8.7 kmh 30.91 in1046.7 mb 0.00 in0.0 mm 0.00 in/hr0.0 mm/hr 0.00 in0.0 mm
01:10 AM 36.0°F2.2°C 15.7°F-9.1°C 43% 2.2 mph E3.5 kmh E 5.4 mph8.7 kmh 30.91 in1046.7 mb 0.00 in0.0 mm 0.00 in/hr0.0 mm/hr 0.00 in0.0 mm
01:09 AM 36.0°F2.2°C 15.7°F-9.1°C 43% 3.1 mph E5.0 kmh E 5.4 mph8.7 kmh 30.91 in1046.7 mb 0.00 in0.0 mm 0.00 in/hr0.0 mm/hr 0.00 in0.0 mm
01:08 AM 36.0°F2.2°C 15.7°F-9.1°C 43% 3.1 mph E5.0 kmh E 5.4 mph8.7 kmh 30.91 in1046.7 mb 0.00 in0.0 mm 0.00 in/hr0.0 mm/hr 0.00 in0.0 mm
01:07 AM 36.0°F2.2°C 15.7°F-9.1°C 43% 3.1 mph E5.0 kmh E 5.4 mph8.7 kmh 30.91 in1046.7 mb 0.00 in0.0 mm 0.00 in/hr0.0 mm/hr 0.00 in0.0 mm
01:06 AM 36.0°F2.2°C 15.7°F-9.1°C 43% 3.1 mph ENE5.0 kmh ENE 5.4 mph8.7 kmh 30.90 in1046.4 mb 0.00 in0.0 mm 0.00 in/hr0.0 mm/hr 0.00 in0.0 mm
01:05 AM 36.1°F2.3°C 15.8°F-9.0°C 43% 3.1 mph E5.0 kmh E 5.4 mph8.7 kmh 30.90 in1046.4 mb 0.00 in0.0 mm 0.00 in/hr0.0 mm/hr 0.00 in0.0 mm
01:04 AM 36.1°F2.3°C 15.8°F-9.0°C 43% 3.1 mph E5.0 kmh E 6.0 mph9.7 kmh 30.90 in1046.4 mb 0.00 in0.0 mm 0.00 in/hr0.0 mm/hr 0.00 in0.0 mm
01:03 AM 36.0°F2.2°C 15.7°F-9.1°C 43% 3.1 mph E5.0 kmh E 6.0 mph9.7 kmh 30.90 in1046.4 mb 0.00 in0.0 mm 0.00 in/hr0.0 mm/hr 0.00 in0.0 mm
01:02 AM 36.0°F2.2°C 15.7°F-9.1°C 43% 3.1 mph E5.0 kmh E 6.0 mph9.7 kmh 30.91 in1046.7 mb 0.00 in0.0 mm 0.00 in/hr0.0 mm/hr 0.00 in0.0 mm
01:01 AM 36.0°F2.2°C 15.7°F-9.1°C 43% 2.2 mph E3.5 kmh E 6.0 mph9.7 kmh 30.91 in1046.7 mb 0.00 in0.0 mm 0.00 in/hr0.0 mm/hr 0.00 in0.0 mm
01:00 AM 36.0°F2.2°C 15.7°F-9.1°C 43% 3.1 mph E5.0 kmh E 6.0 mph9.7 kmh 30.90 in1046.4 mb 0.00 in0.0 mm 0.00 in/hr0.0 mm/hr 0.00 in0.0 mm
12:59 AM 36.1°F2.3°C 15.8°F-9.0°C 43% 3.8 mph E6.1 kmh E 6.0 mph9.7 kmh 30.90 in1046.4 mb 0.00 in0.0 mm 0.00 in/hr0.0 mm/hr 0.00 in0.0 mm
12:58 AM 36.1°F2.3°C 15.8°F-9.0°C 43% 3.1 mph E5.0 kmh E 6.0 mph9.7 kmh 30.90 in1046.4 mb 0.00 in0.0 mm 0.00 in/hr0.0 mm/hr 0.00 in0.0 mm
12:57 AM 36.1°F2.3°C 15.8°F-9.0°C 43% 3.8 mph E6.1 kmh E 6.0 mph9.7 kmh 30.90 in1046.4 mb 0.00 in0.0 mm 0.00 in/hr0.0 mm/hr 0.00 in0.0 mm
12:56 AM 36.3°F2.4°C 16.0°F-8.9°C 43% 3.1 mph E5.0 kmh E 6.0 mph9.7 kmh 30.90 in1046.4 mb 0.00 in0.0 mm 0.00 in/hr0.0 mm/hr 0.00 in0.0 mm
12:55 AM 36.1°F2.3°C 15.8°F-9.0°C 43% 3.1 mph E5.0 kmh E 6.0 mph9.7 kmh 30.90 in1046.4 mb 0.00 in0.0 mm 0.00 in/hr0.0 mm/hr 0.00 in0.0 mm
12:54 AM 36.1°F2.3°C 15.8°F-9.0°C 43% 2.2 mph E3.5 kmh E 6.0 mph9.7 kmh 30.90 in1046.4 mb 0.00 in0.0 mm 0.00 in/hr0.0 mm/hr 0.00 in0.0 mm
12:53 AM 36.1°F2.3°C 15.8°F-9.0°C 43% 3.8 mph E6.1 kmh E 6.0 mph9.7 kmh 30.90 in1046.4 mb 0.00 in0.0 mm 0.00 in/hr0.0 mm/hr 0.00 in0.0 mm
12:52 AM 36.1°F2.3°C 15.8°F-9.0°C 43% 3.1 mph E5.0 kmh E 6.0 mph9.7 kmh 30.90 in1046.4 mb 0.00 in0.0 mm 0.00 in/hr0.0 mm/hr 0.00 in0.0 mm
12:51 AM 36.3°F2.4°C 16.0°F-8.9°C 43% 2.2 mph E3.5 kmh E 6.0 mph9.7 kmh 30.90 in1046.4 mb 0.00 in0.0 mm 0.00 in/hr0.0 mm/hr 0.00 in0.0 mm
12:50 AM 36.1°F2.3°C 15.8°F-9.0°C 43% 4.5 mph E7.2 kmh E 6.0 mph9.7 kmh 30.90 in1046.4 mb 0.00 in0.0 mm 0.00 in/hr0.0 mm/hr 0.00 in0.0 mm
12:49 AM 36.1°F2.3°C 15.8°F-9.0°C 43% 3.8 mph E6.1 kmh E 6.0 mph9.7 kmh 30.90 in1046.4 mb 0.00 in0.0 mm 0.00 in/hr0.0 mm/hr 0.00 in0.0 mm
12:48 AM 36.3°F2.4°C 16.0°F-8.9°C 43% 3.8 mph E6.1 kmh E 6.0 mph9.7 kmh 30.90 in1046.4 mb 0.00 in0.0 mm 0.00 in/hr0.0 mm/hr 0.00 in0.0 mm
12:47 AM 36.3°F2.4°C 16.0°F-8.9°C 43% 3.1 mph E5.0 kmh E 6.0 mph9.7 kmh 30.90 in1046.4 mb 0.00 in0.0 mm 0.00 in/hr0.0 mm/hr 0.00 in0.0 mm
12:46 AM 36.5°F2.5°C 16.2°F-8.8°C 43% 3.1 mph E5.0 kmh E 6.0 mph9.7 kmh 30.90 in1046.4 mb 0.00 in0.0 mm 0.00 in/hr0.0 mm/hr 0.00 in0.0 mm
12:45 AM 36.5°F2.5°C 16.2°F-8.8°C 43% 3.1 mph E5.0 kmh E 6.9 mph11.1 kmh 30.90 in1046.4 mb 0.00 in0.0 mm 0.00 in/hr0.0 mm/hr 0.00 in0.0 mm
12:44 AM 36.3°F2.4°C 16.0°F-8.9°C 43% 3.8 mph ESE6.1 kmh ESE 6.9 mph11.1 kmh 30.90 in1046.4 mb 0.00 in0.0 mm 0.00 in/hr0.0 mm/hr 0.00 in0.0 mm
12:43 AM 36.3°F2.4°C 16.0°F-8.9°C 43% 3.8 mph ESE6.1 kmh ESE 6.9 mph11.1 kmh 30.89 in1046.1 mb 0.00 in0.0 mm 0.00 in/hr0.0 mm/hr 0.00 in0.0 mm
12:42 AM 36.5°F2.5°C 16.2°F-8.8°C 43% 3.8 mph ESE6.1 kmh ESE 6.9 mph11.1 kmh 30.89 in1046.1 mb 0.00 in0.0 mm 0.00 in/hr0.0 mm/hr 0.00 in0.0 mm
12:41 AM 36.5°F2.5°C 16.2°F-8.8°C 43% 4.5 mph ESE7.2 kmh ESE 6.9 mph11.1 kmh 30.89 in1046.1 mb 0.00 in0.0 mm 0.00 in/hr0.0 mm/hr 0.00 in0.0 mm
12:40 AM 36.5°F2.5°C 16.2°F-8.8°C 43% 3.8 mph ESE6.1 kmh ESE 6.9 mph11.1 kmh 30.89 in1046.1 mb 0.00 in0.0 mm 0.00 in/hr0.0 mm/hr 0.00 in0.0 mm
12:39 AM 36.3°F2.4°C 16.0°F-8.9°C 43% 3.1 mph ESE5.0 kmh ESE 6.9 mph11.1 kmh 30.89 in1046.1 mb 0.00 in0.0 mm 0.00 in/hr0.0 mm/hr 0.00 in0.0 mm
12:38 AM 36.5°F2.5°C 16.2°F-8.8°C 43% 3.1 mph E5.0 kmh E 6.9 mph11.1 kmh 30.89 in1046.1 mb 0.00 in0.0 mm 0.00 in/hr0.0 mm/hr 0.00 in0.0 mm
12:37 AM 36.5°F2.5°C 16.2°F-8.8°C 43% 2.2 mph E3.5 kmh E 6.9 mph11.1 kmh 30.90 in1046.4 mb 0.00 in0.0 mm 0.00 in/hr0.0 mm/hr 0.00 in0.0 mm
12:36 AM 36.5°F2.5°C 16.2°F-8.8°C 43% 4.5 mph E7.2 kmh E 6.9 mph11.1 kmh 30.90 in1046.4 mb 0.00 in0.0 mm 0.00 in/hr0.0 mm/hr 0.00 in0.0 mm
12:35 AM 36.3°F2.4°C 16.0°F-8.9°C 43% 3.1 mph E5.0 kmh E 6.0 mph9.7 kmh 30.89 in1046.1 mb 0.00 in0.0 mm 0.00 in/hr0.0 mm/hr 0.00 in0.0 mm
12:34 AM 36.3°F2.4°C 16.0°F-8.9°C 43% 3.1 mph E5.0 kmh E 6.0 mph9.7 kmh 30.89 in1046.1 mb 0.00 in0.0 mm 0.00 in/hr0.0 mm/hr 0.00 in0.0 mm
12:33 AM 36.5°F2.5°C 16.2°F-8.8°C 43% 3.1 mph E5.0 kmh E 6.0 mph9.7 kmh 30.89 in1046.1 mb 0.00 in0.0 mm 0.00 in/hr0.0 mm/hr 0.00 in0.0 mm
12:32 AM 36.7°F2.6°C 16.3°F-8.7°C 43% 3.1 mph E5.0 kmh E 6.0 mph9.7 kmh 30.89 in1046.1 mb 0.00 in0.0 mm 0.00 in/hr0.0 mm/hr 0.00 in0.0 mm
12:31 AM 36.3°F2.4°C 16.0°F-8.9°C 43% 3.8 mph E6.1 kmh E 6.0 mph9.7 kmh 30.89 in1046.1 mb 0.00 in0.0 mm 0.00 in/hr0.0 mm/hr 0.00 in0.0 mm
12:30 AM 36.1°F2.3°C 15.8°F-9.0°C 43% 3.8 mph E6.1 kmh E 6.0 mph9.7 kmh 30.89 in1046.1 mb 0.00 in0.0 mm 0.00 in/hr0.0 mm/hr 0.00 in0.0 mm
12:29 AM 36.3°F2.4°C 16.0°F-8.9°C 43% 3.1 mph E5.0 kmh E 6.0 mph9.7 kmh 30.89 in1046.1 mb 0.00 in0.0 mm 0.00 in/hr0.0 mm/hr 0.00 in0.0 mm
12:28 AM 36.5°F2.5°C 16.2°F-8.8°C 43% 3.1 mph E5.0 kmh E 6.0 mph9.7 kmh 30.89 in1046.1 mb 0.00 in0.0 mm 0.00 in/hr0.0 mm/hr 0.00 in0.0 mm
12:27 AM 36.3°F2.4°C 16.0°F-8.9°C 43% 3.1 mph E5.0 kmh E 6.0 mph9.7 kmh 30.89 in1046.1 mb 0.00 in0.0 mm 0.00 in/hr0.0 mm/hr 0.00 in0.0 mm
12:26 AM 36.3°F2.4°C 16.0°F-8.9°C 43% 3.1 mph E5.0 kmh E 6.0 mph9.7 kmh 30.89 in1046.1 mb 0.00 in0.0 mm 0.00 in/hr0.0 mm/hr 0.00 in0.0 mm
12:25 AM 36.3°F2.4°C 16.0°F-8.9°C 43% 2.2 mph E3.5 kmh E 6.0 mph9.7 kmh 30.89 in1046.1 mb 0.00 in0.0 mm 0.00 in/hr0.0 mm/hr 0.00 in0.0 mm
12:24 AM 36.5°F2.5°C 16.2°F-8.8°C 43% 2.2 mph E3.5 kmh E 6.0 mph9.7 kmh 30.89 in1046.1 mb 0.00 in0.0 mm 0.00 in/hr0.0 mm/hr 0.00 in0.0 mm
12:23 AM 36.5°F2.5°C 16.2°F-8.8°C 43% 3.1 mph E5.0 kmh E 6.0 mph9.7 kmh 30.89 in1046.1 mb 0.00 in0.0 mm 0.00 in/hr0.0 mm/hr 0.00 in0.0 mm
12:22 AM 36.7°F2.6°C 16.3°F-8.7°C 43% 2.2 mph E3.5 kmh E 6.0 mph9.7 kmh 30.89 in1046.1 mb 0.00 in0.0 mm 0.00 in/hr0.0 mm/hr 0.00 in0.0 mm
12:21 AM 36.5°F2.5°C 16.2°F-8.8°C 43% 3.8 mph E6.1 kmh E 6.0 mph9.7 kmh 30.89 in1046.1 mb 0.00 in0.0 mm 0.00 in/hr0.0 mm/hr 0.00 in0.0 mm
12:20 AM 36.7°F2.6°C 16.3°F-8.7°C 43% 3.1 mph E5.0 kmh E 6.0 mph9.7 kmh 30.89 in1046.1 mb 0.00 in0.0 mm 0.00 in/hr0.0 mm/hr 0.00 in0.0 mm
12:19 AM 36.5°F2.5°C 16.2°F-8.8°C 43% 3.8 mph E6.1 kmh E 6.0 mph9.7 kmh 30.89 in1046.1 mb 0.00 in0.0 mm 0.00 in/hr0.0 mm/hr 0.00 in0.0 mm
12:18 AM 36.5°F2.5°C 16.2°F-8.8°C 43% 3.8 mph E6.1 kmh E 6.0 mph9.7 kmh 30.89 in1046.1 mb 0.00 in0.0 mm 0.00 in/hr0.0 mm/hr 0.00 in0.0 mm
12:17 AM 36.5°F2.5°C 16.2°F-8.8°C 43% 3.1 mph E5.0 kmh E 5.4 mph8.7 kmh 30.89 in1046.1 mb 0.00 in0.0 mm 0.00 in/hr0.0 mm/hr 0.00 in0.0 mm
12:16 AM 36.5°F2.5°C 16.2°F-8.8°C 43% 3.8 mph E6.1 kmh E 5.4 mph8.7 kmh 30.89 in1046.1 mb 0.00 in0.0 mm 0.00 in/hr0.0 mm/hr 0.00 in0.0 mm
12:15 AM 36.7°F2.6°C 16.3°F-8.7°C 43% 2.2 mph E3.5 kmh E 5.4 mph8.7 kmh 30.89 in1046.1 mb 0.00 in0.0 mm 0.00 in/hr0.0 mm/hr 0.00 in0.0 mm
12:14 AM 36.7°F2.6°C 16.3°F-8.7°C 43% 3.8 mph E6.1 kmh E 5.4 mph8.7 kmh 30.89 in1046.1 mb 0.00 in0.0 mm 0.00 in/hr0.0 mm/hr 0.00 in0.0 mm
12:13 AM 36.5°F2.5°C 16.2°F-8.8°C 43% 3.1 mph E5.0 kmh E 5.4 mph8.7 kmh 30.89 in1046.1 mb 0.00 in0.0 mm 0.00 in/hr0.0 mm/hr 0.00 in0.0 mm
12:12 AM 36.7°F2.6°C 16.3°F-8.7°C 43% 3.1 mph E5.0 kmh E 5.4 mph8.7 kmh 30.89 in1046.1 mb 0.00 in0.0 mm 0.00 in/hr0.0 mm/hr 0.00 in0.0 mm
12:11 AM 36.7°F2.6°C 16.3°F-8.7°C 43% 2.2 mph E3.5 kmh E 5.4 mph8.7 kmh 30.89 in1046.1 mb 0.00 in0.0 mm 0.00 in/hr0.0 mm/hr 0.00 in0.0 mm
12:10 AM 36.7°F2.6°C 16.3°F-8.7°C 43% 3.8 mph E6.1 kmh E 5.4 mph8.7 kmh 30.89 in1046.1 mb 0.00 in0.0 mm 0.00 in/hr0.0 mm/hr 0.00 in0.0 mm
12:09 AM 36.7°F2.6°C 16.3°F-8.7°C 43% 3.1 mph E5.0 kmh E 5.4 mph8.7 kmh 30.89 in1046.1 mb 0.00 in0.0 mm 0.00 in/hr0.0 mm/hr 0.00 in0.0 mm
12:08 AM 36.7°F2.6°C 16.3°F-8.7°C 43% 3.8 mph E6.1 kmh E 5.4 mph8.7 kmh 30.89 in1046.1 mb 0.00 in0.0 mm 0.00 in/hr0.0 mm/hr 0.00 in0.0 mm
12:07 AM 36.9°F2.7°C 16.5°F-8.6°C 43% 2.2 mph E3.5 kmh E 5.4 mph8.7 kmh 30.89 in1046.1 mb 0.00 in0.0 mm 0.00 in/hr0.0 mm/hr 0.00 in0.0 mm
12:06 AM 36.9°F2.7°C 16.5°F-8.6°C 43% 2.2 mph E3.5 kmh E 5.4 mph8.7 kmh 30.89 in1046.1 mb 0.00 in0.0 mm 0.00 in/hr0.0 mm/hr 0.00 in0.0 mm
12:05 AM 36.9°F2.7°C 16.5°F-8.6°C 43% 2.2 mph E3.5 kmh E 6.0 mph9.7 kmh 30.89 in1046.1 mb 0.00 in0.0 mm 0.00 in/hr0.0 mm/hr 0.00 in0.0 mm
12:04 AM 36.9°F2.7°C 16.5°F-8.6°C 43% 2.2 mph E3.5 kmh E 6.0 mph9.7 kmh 30.89 in1046.1 mb 0.00 in0.0 mm 0.00 in/hr0.0 mm/hr 0.00 in0.0 mm
12:03 AM 36.9°F2.7°C 16.5°F-8.6°C 43% 2.2 mph E3.5 kmh E 6.0 mph9.7 kmh 30.89 in1046.1 mb 0.00 in0.0 mm 0.00 in/hr0.0 mm/hr 0.00 in0.0 mm
12:02 AM 36.9°F2.7°C 16.5°F-8.6°C 43% 2.2 mph E3.5 kmh E 6.0 mph9.7 kmh 30.89 in1046.1 mb 0.00 in0.0 mm 0.00 in/hr0.0 mm/hr 0.00 in0.0 mm
12:01 AM 36.9°F2.7°C 16.5°F-8.6°C 43% 2.2 mph E3.5 kmh E 6.0 mph9.7 kmh 30.89 in1046.1 mb 0.00 in0.0 mm 0.00 in/hr0.0 mm/hr 0.00 in0.0 mm
12:00 AM 36.9°F2.7°C 16.5°F-8.6°C 43% 2.2 mph E3.5 kmh E 6.0 mph9.7 kmh 30.89 in1046.1 mb 0.00 in0.0 mm 0.00 in/hr0.0 mm/hr 0.00 in0.0 mm